createdAt,value
2022-12-12T00:00:19.332Z,71.50
2022-12-12T00:02:48.572Z,71.80
2022-12-12T00:05:20.487Z,72.00
2022-12-12T00:07:49.594Z,72.40
2022-12-12T00:10:19.940Z,72.30
2022-12-12T00:12:48.891Z,72.60
2022-12-12T00:15:18.169Z,72.60
2022-12-12T00:17:47.200Z,72.20
2022-12-12T00:20:16.161Z,72.00
2022-12-12T00:22:45.151Z,71.40
2022-12-12T00:25:14.427Z,71.50
2022-12-12T00:27:44.983Z,70.40
2022-12-12T00:30:14.508Z,69.50
2022-12-12T00:32:43.385Z,69.30
2022-12-12T00:35:12.455Z,68.90
2022-12-12T00:37:41.707Z,68.20
2022-12-12T00:40:12.016Z,68.00
2022-12-12T00:42:41.260Z,67.70
2022-12-12T00:45:12.976Z,66.80
2022-12-12T00:47:42.163Z,66.30
2022-12-12T00:50:11.691Z,65.80
2022-12-12T00:52:41.061Z,65.20
2022-12-12T00:55:12.109Z,64.90
2022-12-12T00:57:41.294Z,64.40
2022-12-12T01:00:16.134Z,64.60
2022-12-12T01:02:45.494Z,64.80
2022-12-12T01:05:15.393Z,65.00
2022-12-12T01:07:45.129Z,65.20
2022-12-12T01:10:14.209Z,65.20
2022-12-12T01:12:43.409Z,65.50
2022-12-12T01:15:15.013Z,65.70
2022-12-12T01:17:44.156Z,66.40
2022-12-12T01:20:19.352Z,67.00
2022-12-12T01:22:48.507Z,68.40
2022-12-12T01:25:18.835Z,69.10
2022-12-12T01:27:47.899Z,70.00
2022-12-12T01:30:21.974Z,71.20
2022-12-12T01:32:51.074Z,72.20
2022-12-12T01:35:20.358Z,72.80
2022-12-12T01:37:49.801Z,73.50
2022-12-12T01:40:23.118Z,74.40
2022-12-12T01:42:53.378Z,75.50
2022-12-12T01:45:54.975Z,76.30
2022-12-12T01:48:28.772Z,77.30
2022-12-12T01:51:00.778Z,78.10
2022-12-12T01:53:33.175Z,78.90
2022-12-12T01:56:07.048Z,79.50
2022-12-12T01:58:36.246Z,80.10
2022-12-12T02:01:05.254Z,80.80
2022-12-12T02:03:36.007Z,81.40
2022-12-12T02:06:07.795Z,82.10
2022-12-12T02:08:59.638Z,82.80
2022-12-12T02:11:30.017Z,83.60
2022-12-12T02:14:00.157Z,84.10
2022-12-12T02:16:40.769Z,84.40
2022-12-12T02:19:53.614Z,85.10
2022-12-12T02:22:34.956Z,85.70
2022-12-12T02:25:27.450Z,86.20
2022-12-12T02:28:13.076Z,86.60
2022-12-12T02:30:50.287Z,87.30
2022-12-12T02:33:38.469Z,87.80
2022-12-12T02:36:17.437Z,88.30
2022-12-12T02:38:56.186Z,88.90
2022-12-12T02:41:30.675Z,89.20
2022-12-12T02:44:09.713Z,89.00
2022-12-12T02:46:43.206Z,88.40
2022-12-12T02:49:19.220Z,88.00
2022-12-12T02:51:49.615Z,88.10
2022-12-12T02:54:21.920Z,88.30
2022-12-12T02:56:54.435Z,88.40
2022-12-12T02:59:30.103Z,88.30
2022-12-12T03:02:27.777Z,88.70
2022-12-12T03:05:37.147Z,88.50
2022-12-12T03:08:13.244Z,88.50
2022-12-12T03:10:52.193Z,88.20
2022-12-12T03:13:31.840Z,87.90
2022-12-12T03:16:12.633Z,87.70
2022-12-12T03:19:05.387Z,87.60
2022-12-12T03:21:42.254Z,87.30
2022-12-12T03:24:21.644Z,86.90
2022-12-12T03:26:56.359Z,85.70
2022-12-12T03:29:29.853Z,84.20
2022-12-12T03:32:05.608Z,83.00
2022-12-12T03:34:41.138Z,82.10
2022-12-12T03:37:14.764Z,81.60
2022-12-12T03:39:48.305Z,80.00
2022-12-12T03:42:24.032Z,79.30
2022-12-12T03:44:59.955Z,78.80
2022-12-12T03:47:34.816Z,77.90
2022-12-12T03:50:08.041Z,76.70
2022-12-12T03:52:44.017Z,76.60
2022-12-12T03:55:16.378Z,76.00
2022-12-12T03:57:52.244Z,75.50
2022-12-12T04:00:21.434Z,74.60
2022-12-12T04:02:54.875Z,74.10
2022-12-12T04:05:27.546Z,73.70
2022-12-12T04:08:04.132Z,73.50
2022-12-12T04:10:56.810Z,73.40
2022-12-12T04:13:34.626Z,73.30
2022-12-12T04:16:07.399Z,72.90
2022-12-12T04:18:43.320Z,72.50
2022-12-12T04:21:52.178Z,72.20
2022-12-12T04:24:30.633Z,72.00
2022-12-12T04:27:05.428Z,71.30
2022-12-12T04:29:42.432Z,71.30
2022-12-12T04:32:20.340Z,70.70
2022-12-12T04:34:57.487Z,70.60
2022-12-12T04:37:34.398Z,70.40
2022-12-12T04:40:09.008Z,70.30
2022-12-12T04:42:49.488Z,70.10
2022-12-12T04:45:22.720Z,69.90
2022-12-12T04:47:54.491Z,69.50
2022-12-12T04:50:28.592Z,69.10
2022-12-12T04:53:02.313Z,69.10
2022-12-12T04:55:49.113Z,68.80
2022-12-12T04:58:21.920Z,68.60
2022-12-12T05:00:58.916Z,68.50
2022-12-12T05:03:35.670Z,68.30
2022-12-12T05:06:10.559Z,68.00
2022-12-12T05:08:43.351Z,67.80
2022-12-12T05:11:14.752Z,67.70
2022-12-12T05:13:44.576Z,67.20
2022-12-12T05:16:19.456Z,66.70
2022-12-12T05:18:49.170Z,66.50
2022-12-12T05:21:18.172Z,66.70
2022-12-12T05:23:46.973Z,66.50
2022-12-12T05:26:23.231Z,66.60
2022-12-12T05:28:52.827Z,66.40
2022-12-12T05:31:21.912Z,66.20
2022-12-12T05:33:50.916Z,65.70
2022-12-12T05:36:20.159Z,65.40
2022-12-12T05:38:49.455Z,65.10
2022-12-12T05:41:19.827Z,64.70
2022-12-12T05:43:48.752Z,64.70
2022-12-12T05:46:17.782Z,64.80
2022-12-12T05:48:51.050Z,64.90
2022-12-12T05:51:20.241Z,65.00
2022-12-12T05:53:49.251Z,65.20
2022-12-12T05:56:19.962Z,65.30
2022-12-12T05:58:48.909Z,65.40
2022-12-12T06:01:17.724Z,65.50
2022-12-12T06:03:46.688Z,65.60
2022-12-12T06:06:15.639Z,65.50
2022-12-12T06:08:44.613Z,65.00
2022-12-12T06:11:13.500Z,65.40
2022-12-12T06:13:46.674Z,65.30
2022-12-12T06:16:19.221Z,65.00
2022-12-12T06:18:52.794Z,65.00
2022-12-12T06:21:22.672Z,64.70
2022-12-12T06:23:51.822Z,64.90
2022-12-12T06:26:21.886Z,64.60
2022-12-12T06:28:52.215Z,64.60
2022-12-12T06:31:21.410Z,64.40
2022-12-12T06:33:50.351Z,64.60
2022-12-12T06:36:24.544Z,65.30
2022-12-12T06:38:54.146Z,66.90
2022-12-12T06:41:24.352Z,67.90
2022-12-12T06:43:55.790Z,67.80
2022-12-12T06:46:27.101Z,67.40
2022-12-12T06:48:57.241Z,65.80
2022-12-12T06:51:29.181Z,64.70
2022-12-12T06:53:58.241Z,64.50
2022-12-12T06:56:28.335Z,63.80
2022-12-12T06:59:01.251Z,63.70
2022-12-12T07:01:30.571Z,63.60
2022-12-12T07:03:59.511Z,64.00
2022-12-12T07:06:28.991Z,64.70
2022-12-12T07:09:01.038Z,66.60
2022-12-12T07:11:30.247Z,67.40
2022-12-12T07:14:02.696Z,66.80
2022-12-12T07:16:31.685Z,64.80
2022-12-12T07:19:00.628Z,64.70
2022-12-12T07:21:29.571Z,63.70
2022-12-12T07:23:59.010Z,61.20
2022-12-12T07:26:27.993Z,59.40
2022-12-12T07:28:56.960Z,56.50
2022-12-12T07:31:29.206Z,54.60
2022-12-12T07:34:16.868Z,52.90
2022-12-12T07:36:45.697Z,52.20
2022-12-12T07:39:20.450Z,51.30
2022-12-12T07:41:49.983Z,51.00
2022-12-12T07:44:23.186Z,51.30
2022-12-12T07:46:53.813Z,52.10
2022-12-12T07:49:22.802Z,52.50
2022-12-12T07:51:51.587Z,53.60
2022-12-12T07:54:20.353Z,53.00
2022-12-12T07:56:49.464Z,53.70
2022-12-12T07:59:18.333Z,54.20
2022-12-12T08:01:47.460Z,54.20
2022-12-12T08:04:17.874Z,54.30
2022-12-12T08:06:46.782Z,54.20
2022-12-12T08:09:15.787Z,54.50
2022-12-12T08:11:46.472Z,56.60
2022-12-12T08:14:15.994Z,58.60
2022-12-12T08:16:44.990Z,59.10
2022-12-12T08:19:13.927Z,57.50
2022-12-12T08:21:44.825Z,56.00
2022-12-12T08:24:15.996Z,57.30
2022-12-12T08:26:45.450Z,59.10
2022-12-12T08:29:14.555Z,61.40
2022-12-12T08:31:44.760Z,59.80
2022-12-12T08:34:14.169Z,58.00
2022-12-12T08:36:45.416Z,56.80
2022-12-12T08:39:17.582Z,56.20
2022-12-12T08:41:48.271Z,53.40
2022-12-12T08:44:19.151Z,50.40
2022-12-12T08:46:49.183Z,49.50
2022-12-12T08:49:19.056Z,49.50
2022-12-12T08:51:51.506Z,49.40
2022-12-12T08:54:20.760Z,47.30
2022-12-12T08:56:49.628Z,48.30
2022-12-12T08:59:18.576Z,48.60
2022-12-12T09:01:47.909Z,48.50
2022-12-12T09:04:17.264Z,47.60
2022-12-12T09:06:46.334Z,48.20
2022-12-12T09:09:16.931Z,49.20
2022-12-12T09:11:46.341Z,48.50
2022-12-12T09:14:15.183Z,46.10
2022-12-12T09:16:44.235Z,45.50
2022-12-12T09:19:13.505Z,45.60
2022-12-12T09:21:42.450Z,45.70
2022-12-12T09:24:12.063Z,46.60
2022-12-12T09:26:42.604Z,46.60
2022-12-12T09:29:14.051Z,46.10
2022-12-12T09:31:43.054Z,46.50
2022-12-12T09:34:12.731Z,47.60
2022-12-12T09:36:41.792Z,46.20
2022-12-12T09:39:10.735Z,44.90
2022-12-12T09:41:43.271Z,43.80
2022-12-12T09:44:20.320Z,43.40
2022-12-12T09:46:55.996Z,44.10
2022-12-12T09:49:30.004Z,45.30
2022-12-12T09:52:03.325Z,45.80
2022-12-12T09:54:34.096Z,46.70
2022-12-12T09:57:18.989Z,46.90
2022-12-12T09:59:55.377Z,46.00
2022-12-12T10:02:42.554Z,45.20
2022-12-12T10:05:23.400Z,45.90
2022-12-12T10:08:00.755Z,45.90
2022-12-12T10:10:34.615Z,47.30
2022-12-12T10:13:07.848Z,46.40
2022-12-12T10:15:40.919Z,44.80
2022-12-12T10:18:16.453Z,44.10
2022-12-12T10:20:51.679Z,45.20
2022-12-12T10:23:26.270Z,45.50
2022-12-12T10:25:59.153Z,45.50
2022-12-12T10:28:32.035Z,46.40
2022-12-12T10:31:17.044Z,45.10
2022-12-12T10:34:01.704Z,44.30
2022-12-12T10:36:43.120Z,44.30
2022-12-12T10:39:20.852Z,44.40
2022-12-12T10:41:55.005Z,44.30
2022-12-12T10:44:46.985Z,44.60
2022-12-12T10:47:16.334Z,45.10
2022-12-12T10:49:45.510Z,45.60
2022-12-12T10:52:19.043Z,46.10
2022-12-12T10:54:52.533Z,46.60
2022-12-12T10:57:24.863Z,47.30
2022-12-12T10:59:57.456Z,48.10
2022-12-12T11:02:38.191Z,49.10
2022-12-12T11:05:20.784Z,49.00
2022-12-12T11:07:59.716Z,49.00
2022-12-12T11:10:34.311Z,49.20
2022-12-12T11:13:22.492Z,48.90
2022-12-12T11:15:59.069Z,48.90
2022-12-12T11:18:32.182Z,48.80
2022-12-12T11:21:09.488Z,49.00
2022-12-12T11:23:43.597Z,49.40
2022-12-12T11:26:17.715Z,49.80
2022-12-12T11:29:08.006Z,49.80
2022-12-12T11:31:38.798Z,49.90
2022-12-12T11:34:09.380Z,49.90
2022-12-12T11:36:41.031Z,50.10
2022-12-12T11:39:20.030Z,50.40
2022-12-12T11:42:24.020Z,50.60
2022-12-12T11:45:05.353Z,50.60
2022-12-12T11:47:42.387Z,50.30
2022-12-12T11:50:23.432Z,50.50
2022-12-12T11:52:56.189Z,50.50
2022-12-12T11:55:35.984Z,51.10
2022-12-12T11:58:18.928Z,50.80
2022-12-12T12:00:55.422Z,50.80
2022-12-12T12:03:53.623Z,50.80
2022-12-12T12:06:37.221Z,50.90
2022-12-12T12:09:26.164Z,51.50
2022-12-12T12:12:04.159Z,53.00
2022-12-12T12:14:57.708Z,54.10
2022-12-12T12:17:37.308Z,55.10
2022-12-12T12:20:14.977Z,56.30
2022-12-12T12:22:53.807Z,56.80
2022-12-12T12:25:48.518Z,57.20
2022-12-12T12:28:41.416Z,57.70
2022-12-12T12:31:18.670Z,58.50
2022-12-12T12:34:00.894Z,58.90
2022-12-12T12:36:41.228Z,59.40
2022-12-12T12:39:22.242Z,59.30
2022-12-12T12:42:09.233Z,59.40
2022-12-12T12:44:49.835Z,59.60
2022-12-12T12:47:31.168Z,59.70
2022-12-12T12:50:07.429Z,59.50
2022-12-12T12:52:42.251Z,59.50
2022-12-12T12:55:17.501Z,59.40
2022-12-12T12:57:48.612Z,59.20
2022-12-12T13:00:21.036Z,59.10
2022-12-12T13:02:56.816Z,58.60
2022-12-12T13:05:30.509Z,58.80
2022-12-12T13:08:08.684Z,58.30
2022-12-12T13:10:41.540Z,58.80
2022-12-12T13:13:18.518Z,59.40
2022-12-12T13:15:53.073Z,59.90
2022-12-12T13:18:22.183Z,60.00
2022-12-12T13:20:56.740Z,60.20
2022-12-12T13:23:56.361Z,59.40
2022-12-12T13:26:31.060Z,60.00
2022-12-12T13:29:06.174Z,60.20
2022-12-12T13:32:08.681Z,60.30
2022-12-12T13:34:42.614Z,60.40
2022-12-12T13:37:17.668Z,60.70
2022-12-12T13:40:09.117Z,60.80
2022-12-12T13:42:54.571Z,60.90
2022-12-12T13:45:44.532Z,60.90
2022-12-12T13:48:45.961Z,60.70
2022-12-12T13:51:39.033Z,60.70
2022-12-12T13:54:53.706Z,60.90
2022-12-12T13:57:59.207Z,60.90
2022-12-12T14:00:30.987Z,60.60
2022-12-12T14:03:29.025Z,60.40
2022-12-12T14:06:12.021Z,60.20
2022-12-12T14:08:50.506Z,60.50
2022-12-12T14:11:38.183Z,60.80
2022-12-12T14:14:26.973Z,61.10
2022-12-12T14:16:58.708Z,61.20
2022-12-12T14:19:46.499Z,61.30
2022-12-12T14:22:28.318Z,61.40
2022-12-12T14:25:06.233Z,61.70
2022-12-12T14:28:04.835Z,61.80
2022-12-12T14:30:48.793Z,61.90
2022-12-12T14:33:46.661Z,62.30
2022-12-12T14:36:41.272Z,62.30
2022-12-12T14:39:26.633Z,62.20
2022-12-12T14:41:58.554Z,62.20
2022-12-12T14:44:34.965Z,62.00
2022-12-12T14:47:11.809Z,62.00
2022-12-12T14:49:42.435Z,61.80
2022-12-12T14:52:16.490Z,61.80
2022-12-12T14:54:46.693Z,61.70
2022-12-12T14:57:23.632Z,61.60
2022-12-12T14:59:53.202Z,61.60
2022-12-12T15:02:26.323Z,61.50
2022-12-12T15:05:04.808Z,61.60
2022-12-12T15:08:00.539Z,61.40
2022-12-12T15:10:33.423Z,61.30
2022-12-12T15:13:02.435Z,61.20
2022-12-12T15:15:33.569Z,61.10
2022-12-12T15:18:03.259Z,61.10
2022-12-12T15:20:33.829Z,61.00
2022-12-12T15:23:05.602Z,60.90
2022-12-12T15:25:36.790Z,60.90
2022-12-12T15:28:06.041Z,60.90
2022-12-12T15:30:37.776Z,60.90
2022-12-12T15:33:08.535Z,60.90
2022-12-12T15:35:39.089Z,60.80
2022-12-12T15:38:14.487Z,60.80
2022-12-12T15:40:46.592Z,60.60
2022-12-12T15:43:18.975Z,60.80
2022-12-12T15:45:53.354Z,60.70
2022-12-12T15:48:23.591Z,60.60
2022-12-12T15:50:59.062Z,60.80
2022-12-12T15:53:29.771Z,60.90
2022-12-12T15:56:01.508Z,60.60
2022-12-12T15:58:32.538Z,60.70
2022-12-12T16:01:20.469Z,60.70
2022-12-12T16:03:59.408Z,60.40
2022-12-12T16:06:35.532Z,60.20
2022-12-12T16:09:17.926Z,60.00
2022-12-12T16:11:48.189Z,59.80
2022-12-12T16:14:39.548Z,59.80
2022-12-12T16:17:14.312Z,59.80
2022-12-12T16:19:57.253Z,60.10
2022-12-12T16:22:34.842Z,60.20
2022-12-12T16:25:18.347Z,60.50
2022-12-12T16:27:48.127Z,60.60
2022-12-12T16:30:17.943Z,60.80
2022-12-12T16:32:47.021Z,61.30
2022-12-12T16:35:17.317Z,62.10
2022-12-12T16:37:48.947Z,63.00
2022-12-12T16:40:20.296Z,64.20
2022-12-12T16:42:56.531Z,65.10
2022-12-12T16:45:25.840Z,66.10
2022-12-12T16:47:55.054Z,66.50
2022-12-12T16:50:23.950Z,66.90
2022-12-12T16:52:54.679Z,67.70
2022-12-12T16:55:25.614Z,68.80
2022-12-12T16:57:54.731Z,69.20
2022-12-12T17:00:23.830Z,69.70
2022-12-12T17:02:52.736Z,70.20
2022-12-12T17:05:24.771Z,70.40
2022-12-12T17:07:55.665Z,71.10
2022-12-12T17:10:26.489Z,71.70
2022-12-12T17:12:56.059Z,72.10
2022-12-12T17:15:27.526Z,72.30
2022-12-12T17:17:56.912Z,72.70
2022-12-12T17:20:26.917Z,73.40
2022-12-12T17:25:59.079Z,74.80
2022-12-12T17:28:30.118Z,75.60
2022-12-12T17:30:59.024Z,76.30
2022-12-12T17:33:28.062Z,77.10
2022-12-12T17:36:01.404Z,77.90
2022-12-12T17:38:32.405Z,78.80
2022-12-12T17:41:05.648Z,79.60
2022-12-12T17:43:34.729Z,80.20
2022-12-12T17:46:05.607Z,81.00
2022-12-12T17:48:36.365Z,82.00
2022-12-12T17:51:07.921Z,83.00
2022-12-12T17:53:39.798Z,83.60
2022-12-12T17:56:10.436Z,84.20
2022-12-12T17:58:41.044Z,84.90
2022-12-12T18:01:14.535Z,85.60
2022-12-12T18:03:44.962Z,86.20
2022-12-12T18:06:14.893Z,86.60
2022-12-12T18:09:04.923Z,87.40
2022-12-12T18:11:36.029Z,88.00
2022-12-12T18:14:23.685Z,88.70
2022-12-12T18:16:53.370Z,89.00
2022-12-12T18:19:24.256Z,89.60
2022-12-12T18:22:02.097Z,90.00
2022-12-12T18:24:33.305Z,90.30
2022-12-12T18:27:03.764Z,90.60
2022-12-12T18:29:33.355Z,90.90
2022-12-12T18:32:02.636Z,91.30
2022-12-12T18:34:31.695Z,91.70
2022-12-12T18:37:00.882Z,92.00
2022-12-12T18:39:29.823Z,92.30
2022-12-12T18:42:00.428Z,92.60
2022-12-12T18:44:29.471Z,92.90
2022-12-12T18:46:58.160Z,93.20
2022-12-12T18:49:26.988Z,93.60
2022-12-12T18:51:55.960Z,93.90
2022-12-12T18:54:28.508Z,94.10
2022-12-12T18:56:58.737Z,94.60
2022-12-12T18:59:30.094Z,95.00
2022-12-12T19:02:01.022Z,95.60
2022-12-12T19:04:30.477Z,96.10
2022-12-12T19:07:00.173Z,96.70
2022-12-12T19:09:29.849Z,97.30
2022-12-12T19:12:02.446Z,97.80
2022-12-12T19:14:59.902Z,98.40
2022-12-12T19:17:26.057Z,98.80
2022-12-12T19:19:55.790Z,99.10
2022-12-12T19:22:44.305Z,99.40
2022-12-12T19:25:14.408Z,99.70
2022-12-12T19:27:43.581Z,99.90
2022-12-12T19:30:16.471Z,99.90
2022-12-12T19:32:49.251Z,99.90
2022-12-12T19:35:18.862Z,99.90
2022-12-12T19:37:50.343Z,99.90
2022-12-12T19:40:19.787Z,99.90
2022-12-12T19:42:48.723Z,99.90
2022-12-12T19:45:19.215Z,99.90
2022-12-12T19:47:48.196Z,99.90
2022-12-12T19:50:17.449Z,99.90
2022-12-12T19:52:46.768Z,99.90
2022-12-12T19:55:16.561Z,99.90
2022-12-12T19:57:45.920Z,99.90
2022-12-12T20:00:20.070Z,99.90
2022-12-12T20:02:50.590Z,99.90
2022-12-12T20:05:20.158Z,99.90
2022-12-12T20:07:49.111Z,99.90
2022-12-12T20:10:18.570Z,99.90
2022-12-12T20:12:57.940Z,99.90
2022-12-12T20:15:27.716Z,99.90
2022-12-12T20:18:00.807Z,99.90
2022-12-12T20:20:30.082Z,99.90
2022-12-12T20:22:58.937Z,99.90
2022-12-12T20:25:27.875Z,99.90
2022-12-12T20:28:15.730Z,99.90
2022-12-12T20:30:46.220Z,99.90
2022-12-12T20:33:18.344Z,99.90
2022-12-12T20:35:47.431Z,99.90
2022-12-12T20:38:17.016Z,99.90
2022-12-12T20:40:46.637Z,99.90
2022-12-12T20:43:15.895Z,99.90
2022-12-12T20:45:44.848Z,99.90
2022-12-12T20:48:13.770Z,99.90
2022-12-12T20:50:44.450Z,99.90
2022-12-12T20:53:13.655Z,99.90
2022-12-12T20:55:42.850Z,99.90
2022-12-12T20:58:11.742Z,99.90
2022-12-12T21:00:40.772Z,99.90
2022-12-12T21:03:09.729Z,99.90
2022-12-12T21:05:38.788Z,99.90
2022-12-12T21:08:09.318Z,99.90
2022-12-12T21:10:38.414Z,99.90
2022-12-12T21:13:07.447Z,99.90
2022-12-12T21:15:37.452Z,99.90
2022-12-12T21:18:07.323Z,99.90
2022-12-12T21:20:36.407Z,99.90
2022-12-12T21:23:05.308Z,99.90
2022-12-12T21:25:37.545Z,99.90
2022-12-12T21:28:06.739Z,99.90
2022-12-12T21:30:35.691Z,99.90
2022-12-12T21:33:04.652Z,99.90
2022-12-12T21:35:35.864Z,99.90
2022-12-12T21:38:04.988Z,99.90
2022-12-12T21:40:36.992Z,99.90
2022-12-12T21:43:05.893Z,99.90
2022-12-12T21:45:34.867Z,99.90
2022-12-12T21:48:03.724Z,99.90
2022-12-12T21:50:32.909Z,99.90
2022-12-12T21:53:19.211Z,99.90
2022-12-12T21:55:49.711Z,99.90
2022-12-12T21:58:18.740Z,99.90
2022-12-12T22:00:47.604Z,99.90
2022-12-12T22:03:16.624Z,99.90
2022-12-12T22:05:45.497Z,99.90
2022-12-12T22:08:14.542Z,99.90
2022-12-12T22:10:44.271Z,99.90
2022-12-12T22:13:14.700Z,99.90
2022-12-12T22:15:43.748Z,99.90
2022-12-12T22:18:12.594Z,99.90
2022-12-12T22:20:41.391Z,99.90
2022-12-12T22:23:10.331Z,99.90
2022-12-12T22:25:39.144Z,99.90
2022-12-12T22:28:07.988Z,99.90
2022-12-12T22:30:38.694Z,99.90
2022-12-12T22:33:08.747Z,99.90
2022-12-12T22:35:37.688Z,99.90
2022-12-12T22:38:06.576Z,99.90
2022-12-12T22:40:35.763Z,99.90
2022-12-12T22:43:04.687Z,99.90
2022-12-12T22:45:35.538Z,99.90
2022-12-12T22:48:06.446Z,99.90
2022-12-12T22:50:35.759Z,99.90
2022-12-12T22:53:05.656Z,99.90
2022-12-12T22:55:36.193Z,99.90
2022-12-12T22:58:05.211Z,99.90
2022-12-12T23:00:34.073Z,99.90
2022-12-12T23:03:03.108Z,99.90
2022-12-12T23:05:33.798Z,99.90
2022-12-12T23:08:03.271Z,99.90
2022-12-12T23:10:32.342Z,99.90
2022-12-12T23:13:01.451Z,99.90
2022-12-12T23:15:30.906Z,99.90
2022-12-12T23:18:00.077Z,99.90
2022-12-12T23:20:29.128Z,99.90
2022-12-12T23:22:59.631Z,99.90
2022-12-12T23:25:28.779Z,99.90
2022-12-12T23:27:57.987Z,99.90
2022-12-12T23:30:27.574Z,99.90
2022-12-12T23:32:56.410Z,99.90
2022-12-12T23:35:25.406Z,99.90
2022-12-12T23:37:54.360Z,99.90
2022-12-12T23:40:26.249Z,99.90
2022-12-12T23:42:56.583Z,99.60
2022-12-12T23:45:26.789Z,99.20
2022-12-12T23:47:57.431Z,99.10
2022-12-12T23:50:27.395Z,99.00
2022-12-12T23:52:56.266Z,98.90
2022-12-12T23:55:26.730Z,98.90
2022-12-12T23:57:55.796Z,99.10
